Observations for LONDON GATWICK ARPT, United Kingdom (EGKK)

EGKK 140820Z VRB03KT 9999 FEW012 SCT043 17/14 Q1016 
EGKK 140750Z VRB03KT 9999 BKN042 17/14 Q1016
EGKK 140720Z VRB03KT 9999 BKN043 16/13 Q1016
EGKK 140650Z 26007KT 9999 SCT044 16/13 Q1016
EGKK 140620Z 25005KT 9999 FEW045 15/13 Q1016
EGKK 140550Z VRB02KT CAVOK 14/13 Q1015  
EGKK 140520Z 25004KT CAVOK 14/12 Q1015  
EGKK 140450Z 25002KT CAVOK 13/13 Q1015  
EGKK 140420Z 26003KT CAVOK 14/13 Q1015  
EGKK 140350Z 23004KT CAVOK 14/13 Q1014  
EGKK 140320Z 21003KT CAVOK 15/14 Q1014  
EGKK 140250Z 23003KT CAVOK 14/14 Q1014  
EGKK 140220Z 26005KT CAVOK 14/14 Q1014  
EGKK 140150Z 28004KT CAVOK 15/13 Q1013  
EGKK 140120Z 24004KT CAVOK 16/14 Q1013  
EGKK 140050Z 30005KT CAVOK 17/14 Q1013  
EGKK 140020Z 31006KT CAVOK 18/13 Q1013  
EGKK 132350Z 27004KT 230V320 CAVOK 17/14 Q1012  
EGKK 132320Z 22004KT CAVOK 18/14 Q1012  
EGKK 132250Z 29005KT 250V330 CAVOK 19/14 Q1012  
EGKK 132220Z 32009KT CAVOK 19/15 Q1011  
EGKK 132150Z 30007KT CAVOK 19/15 Q1011  
EGKK 132120Z 29008KT 9999 FEW042 20/15 Q1011
EGKK 132050Z 28007KT 9999 FEW042 20/15 Q1010
EGKK 132020Z 26007KT 9999 SCT042 20/15 Q1010
EGKK 131950Z 24004KT 9999 SCT044 20/14 Q1010
EGKK 131920Z 24005KT CAVOK 21/15 Q1009  
EGKK 131850Z 22005KT 9999 FEW048 21/15 Q1009
EGKK 131820Z 24006KT 9999 FEW049 22/14 Q1009
EGKK 131750Z 26008KT 9999 FEW048 22/14 Q1008
EGKK 131720Z 26011KT CAVOK 23/14 Q1008  
EGKK 131650Z 27013KT 9999 FEW045 23/13 Q1008
EGKK 131620Z 28012KT 9999 FEW045 23/13 Q1008
EGKK 131520Z 27010KT 240V310 9999 FEW045 24/14 Q1008
EGKK 131450Z 29011KT 9999 FEW037 22/14 Q1007
EGKK 131420Z 27009KT 250V310 9999 FEW037 23/15 Q1007
EGKK 131350Z 28009KT 9999 FEW030CB FEW036 22/15 Q1007   
EGKK 131320Z 27012KT 9999 FEW030CB SCT033 22/15 Q1007   
EGKK 131250Z 25010KT 9999 FEW025CB FEW033 22/15 Q1007   
EGKK 131220Z 27008KT 230V300 9999 VCSH SCT025 FEW033CB 21/16 Q1007  
EGKK 131150Z 27009KT 240V300 9999 FEW019 SCT027CB 21/15 Q1007   
EGKK 131120Z 28009KT 260V330 9999 SCT019 20/16 Q1007
EGKK 131050Z 27009KT 240V300 9999 FEW015 SCT023 20/16 Q1007 
EGKK 131020Z 28010KT 9999 FEW013 SCT028 19/16 Q1007 
EGKK 130950Z 26009KT 9999 SCT012 SCT022 18/16 Q1007 
EGKK 130920Z 27007KT 9999 SCT012 BKN021 18/16 Q1007 
EGKK 130850Z 26008KT 9999 FEW010 BKN013 18/16 Q1006 
EGKK 130820Z 27006KT 240V300 9999 BKN010 18/16 Q1006
EGKK 130750Z 28006KT 250V320 9999 SCT007 17/16 Q1006